MMVR

Details ICAO MMVR (VER)
Name GENERAL HERIBERTO JARA INTL
Region Mexico
Timezone America/Mexico_City (UTC-6.0)
Plans Departing 41
Arriving 50
Stats Elevation 90 ft / 27 m (AMSL)
Location 19.141959° -96.186631°
Runways 2
Magnetic Variation 3.394° E
Sunrise 2017-12-12 12:50:14 UTC / 2017-12-12 06:50:14 Local
Sunset 2017-12-12 23:49:50 UTC / 2017-12-12 17:49:50 Local
Advertisement - Login to hide

Runways

ID Width Length Bearing (true) Bearing (mag) Surface Threshold Offset Overrun Length
09 148 ft / 45 m 5,020 ft / 1,530 m 100.99° 97.60° Asphalt 0 ft / 0 m 0 ft / 0 m
18 148 ft / 45 m 7,929 ft / 2,417 m 191.08° 187.69° Asphalt 0 ft / 0 m 0 ft / 0 m
27 148 ft / 45 m 5,020 ft / 1,530 m 280.99° 277.60° Asphalt 0 ft / 0 m 0 ft / 0 m
36 148 ft / 45 m 7,929 ft / 2,417 m 11.08° 7.69° Asphalt 0 ft / 0 m 190 ft / 58 m

Map

Weather


0- 5 10 15 20 25 30 35+ Temperature / ° C

Clouds and Precipitation
Forecast for 2017-12-12 18:00 UTC. Updated an hour ago

Ground ~20,000 ft ~40,000 ft Winds

METAR

MMVR 121545Z 22003KT 6SM BKN025 OVC070 20/13 A3028 RMK 8/67/ HZY BINOVC

TAF

TAF MMVR 120536Z 1206/1306 03005KT P6SM SCT030 BKN250 TX27/1212Z TN16/1212Z FM121700 06010KT P6SM SCT020 SCT250 FM130300 03010KT P6SM SCT020 SCT250

Frequencies

Recorded 127.80 MHz ATIS
Approach 120.40 MHz VERACRUZ APP
Tower 118.50 MHz VERACRUZ TWR
Warning: Do not use this data for real-world aviation or navigation. No guarantee of current accuracy is given.